Time;durP1;ratioP1;P1;durP2;ratioP2;P2;SDS_P1;SDS_P2;PMS_P1;PMS_P2;Temp;Humidity;BMP_temperature;BMP_pressure;BME280_temperature;BME280_humidity;BME280_pressure;Samples;Min_cycle;Max_cycle;Signal;HPM_P1;HPM_P2
2022/01/31 00:01:28;;;;;;;7.72;1.83;;;;;;;;;;5032144;28;20045;-77
2022/01/31 00:03:54;;;;;;;14.75;2.67;;;;;;;;;;5031888;28;20053;-75
2022/01/31 00:06:20;;;;;;;12.73;3.50;;;;;;;;;;5031827;28;20046;-76
2022/01/31 00:08:46;;;;;;;14.10;3.25;;;;;;;;;;5043867;28;20041;-77
2022/01/31 00:11:13;;;;;;;12.57;2.33;;;;;;;;;;5051012;28;20056;-77
2022/01/31 00:13:44;;;;;;;12.82;2.03;;;;;;;;;;5026285;28;20034;-77
2022/01/31 00:16:14;;;;;;;23.63;3.45;;;;;;;;;;5051093;28;20040;-77
2022/01/31 00:18:40;;;;;;;11.95;2.47;;;;;;;;;;5067915;28;20048;-78
2022/01/31 00:21:06;;;;;;;10.38;2.35;;;;;;;;;;5068115;28;20400;-79
2022/01/31 00:23:33;;;;;;;18.67;2.97;;;;;;;;;;5067886;28;20501;-76
2022/01/31 00:25:59;;;;;;;10.90;2.55;;;;;;;;;;5034489;28;20076;-78
2022/01/31 00:28:24;;;;;;;15.52;2.88;;;;;;;;;;5067777;28;20072;-75
2022/01/31 00:30:50;;;;;;;12.48;2.45;;;;;;;;;;5068073;28;20151;-78
2022/01/31 00:33:16;;;;;;;8.90;3.38;;;;;;;;;;5067722;28;20067;-77
2022/01/31 00:35:42;;;;;;;12.63;2.65;;;;;;;;;;5067787;28;20083;-78
2022/01/31 00:38:08;;;;;;;5.05;2.35;;;;;;;;;;5051074;28;20068;-75
2022/01/31 00:40:38;;;;;;;12.43;3.45;;;;;;;;;;5050984;28;20390;-78
2022/01/31 00:43:04;;;;;;;17.63;4.25;;;;;;;;;;5050855;28;20067;-79
2022/01/31 00:45:32;;;;;;;10.05;4.63;;;;;;;;;;5051500;28;20052;-78
2022/01/31 00:48:03;;;;;;;8.27;2.88;;;;;;;;;;5050764;28;20486;-78
2022/01/31 00:50:30;;;;;;;13.50;3.35;;;;;;;;;;5051089;28;20045;-77
2022/01/31 00:52:56;;;;;;;16.58;4.40;;;;;;;;;;5050687;28;20486;-79
2022/01/31 00:55:22;;;;;;;17.30;4.68;;;;;;;;;;5050757;28;20045;-77
2022/01/31 00:57:48;;;;;;;16.60;4.32;;;;;;;;;;5051096;28;20064;-75
2022/01/31 01:00:15;;;;;;;14.60;4.47;;;;;;;;;;5050618;28;20041;-77
2022/01/31 01:02:42;;;;;;;11.70;4.38;;;;;;;;;;5050682;28;20409;-78
2022/01/31 01:05:08;;;;;;;15.43;3.90;;;;;;;;;;5050859;28;20052;-78
2022/01/31 01:07:34;;;;;;;12.63;4.63;;;;;;;;;;5050549;28;20500;-78
2022/01/31 01:10:00;;;;;;;11.63;5.00;;;;;;;;;;5049537;28;20053;-78
2022/01/31 01:12:26;;;;;;;29.05;4.30;;;;;;;;;;5050368;28;20052;-78
2022/01/31 01:14:52;;;;;;;9.52;3.78;;;;;;;;;;5050636;28;20041;-76
2022/01/31 01:17:18;;;;;;;19.33;5.03;;;;;;;;;;5034072;28;20087;-77
2022/01/31 01:19:45;;;;;;;10.90;4.60;;;;;;;;;;5033986;28;20041;-76
2022/01/31 01:22:11;;;;;;;11.50;4.65;;;;;;;;;;5067166;28;20045;-79
2022/01/31 01:24:37;;;;;;;13.45;4.68;;;;;;;;;;5066855;28;20098;-76
2022/01/31 01:27:03;;;;;;;11.18;4.35;;;;;;;;;;5033710;28;20432;-78
2022/01/31 01:29:29;;;;;;;22.27;5.18;;;;;;;;;;5033862;28;20240;-78
2022/01/31 01:31:55;;;;;;;9.63;3.72;;;;;;;;;;5067037;28;20048;-77
2022/01/31 01:34:22;;;;;;;15.80;5.97;;;;;;;;;;5033666;28;20068;-80
2022/01/31 01:36:52;;;;;;;15.13;5.40;;;;;;;;;;5067003;28;20501;-78
2022/01/31 01:39:19;;;;;;;17.58;5.45;;;;;;;;;;5033381;28;20033;-76
2022/01/31 01:41:45;;;;;;;16.13;4.95;;;;;;;;;;5033407;28;20047;-77
2022/01/31 01:44:11;;;;;;;20.13;7.10;;;;;;;;;;5067092;28;20725;-77
2022/01/31 01:46:36;;;;;;;20.60;6.57;;;;;;;;;;5033609;28;20041;-78
2022/01/31 01:49:03;;;;;;;24.40;7.03;;;;;;;;;;5033464;28;20475;-77
2022/01/31 01:51:30;;;;;;;13.50;6.43;;;;;;;;;;5033434;28;20110;-78
2022/01/31 01:53:57;;;;;;;15.30;5.88;;;;;;;;;;5033611;28;20066;-79
2022/01/31 01:56:23;;;;;;;14.05;5.65;;;;;;;;;;5033605;28;20049;-77
2022/01/31 01:58:49;;;;;;;17.67;6.53;;;;;;;;;;5029974;28;20792;-79
2022/01/31 02:01:15;;;;;;;16.33;6.57;;;;;;;;;;5013610;28;20056;-78
2022/01/31 02:03:41;;;;;;;14.25;6.72;;;;;;;;;;5014256;28;20042;-79
2022/01/31 02:06:08;;;;;;;14.13;6.45;;;;;;;;;;5013959;28;20042;-78
2022/01/31 02:08:42;;;;;;;17.10;6.57;;;;;;;;;;5029921;28;20088;-80
2022/01/31 02:11:08;;;;;;;22.52;7.68;;;;;;;;;;5029829;28;20065;-79
2022/01/31 02:13:35;;;;;;;14.88;6.40;;;;;;;;;;5030058;28;20049;-78
2022/01/31 02:16:01;;;;;;;17.23;8.57;;;;;;;;;;5030052;28;20128;-77
2022/01/31 02:18:29;;;;;;;19.77;7.55;;;;;;;;;;5013608;28;20045;-78
2022/01/31 02:20:55;;;;;;;21.02;7.68;;;;;;;;;;5014979;28;20037;-79
2022/01/31 02:23:21;;;;;;;16.58;7.80;;;;;;;;;;5034414;28;20072;-79
2022/01/31 02:25:52;;;;;;;14.70;6.57;;;;;;;;;;5017272;28;20041;-79
2022/01/31 02:28:18;;;;;;;16.08;7.13;;;;;;;;;;5051709;28;20041;-78
2022/01/31 02:30:44;;;;;;;18.13;7.82;;;;;;;;;;5053827;28;20120;-81
2022/01/31 02:33:10;;;;;;;15.93;7.82;;;;;;;;;;5053666;28;20491;-78
2022/01/31 02:35:36;;;;;;;15.18;6.78;;;;;;;;;;5053386;28;20188;-77
2022/01/31 02:38:02;;;;;;;17.63;7.93;;;;;;;;;;5053271;28;20080;-78
2022/01/31 02:40:29;;;;;;;20.63;8.77;;;;;;;;;;5053415;28;20548;-77
2022/01/31 02:42:55;;;;;;;19.90;8.32;;;;;;;;;;5053051;28;20044;-78
2022/01/31 02:45:21;;;;;;;17.05;8.85;;;;;;;;;;5053699;28;20052;-77
2022/01/31 02:47:53;;;;;;;17.40;9.32;;;;;;;;;;5053138;28;20033;-78
2022/01/31 02:50:20;;;;;;;15.93;8.20;;;;;;;;;;5053110;28;20124;-78
2022/01/31 02:52:49;;;;;;;21.23;9.13;;;;;;;;;;5052877;28;20124;-77
2022/01/31 02:55:15;;;;;;;20.23;9.75;;;;;;;;;;5053345;28;20818;-78
2022/01/31 02:57:42;;;;;;;16.02;8.30;;;;;;;;;;5053569;28;20033;-77
2022/01/31 03:00:09;;;;;;;14.43;7.03;;;;;;;;;;5052857;28;20079;-78
2022/01/31 03:02:35;;;;;;;20.83;9.27;;;;;;;;;;5052747;28;20051;-80
2022/01/31 03:05:01;;;;;;;14.40;7.63;;;;;;;;;;5052831;28;20099;-78
2022/01/31 03:07:27;;;;;;;14.45;7.65;;;;;;;;;;5053162;28;20049;-79
2022/01/31 03:09:53;;;;;;;16.40;8.30;;;;;;;;;;5052702;28;20076;-77
2022/01/31 03:12:19;;;;;;;18.08;8.45;;;;;;;;;;5052739;28;20461;-76
2022/01/31 03:14:45;;;;;;;22.23;8.43;;;;;;;;;;5052725;28;20037;-77
2022/01/31 03:17:11;;;;;;;12.43;7.45;;;;;;;;;;5052665;28;20040;-78
2022/01/31 03:19:39;;;;;;;11.13;5.38;;;;;;;;;;5052533;28;20045;-77
2022/01/31 03:22:05;;;;;;;14.05;7.68;;;;;;;;;;5052471;28;20107;-78
2022/01/31 03:24:32;;;;;;;10.25;5.20;;;;;;;;;;5052572;28;20493;-78
2022/01/31 03:26:58;;;;;;;13.63;5.93;;;;;;;;;;5052790;28;20041;-78
2022/01/31 03:29:24;;;;;;;11.68;5.55;;;;;;;;;;5052250;28;20243;-78
2022/01/31 03:31:50;;;;;;;9.07;5.68;;;;;;;;;;5051657;28;20150;-79
2022/01/31 03:34:16;;;;;;;13.07;6.57;;;;;;;;;;5052544;28;20646;-78
2022/01/31 03:36:43;;;;;;;12.82;6.15;;;;;;;;;;5052395;28;20393;-76
2022/01/31 03:39:09;;;;;;;9.02;5.18;;;;;;;;;;5052089;28;20040;-80
2022/01/31 03:41:35;;;;;;;11.68;5.57;;;;;;;;;;5052375;28;20040;-78
2022/01/31 03:44:01;;;;;;;12.13;5.43;;;;;;;;;;5051871;28;20040;-78
2022/01/31 03:46:27;;;;;;;9.43;5.45;;;;;;;;;;5052119;28;20129;-76
2022/01/31 03:48:53;;;;;;;9.13;5.32;;;;;;;;;;5051821;28;20401;-76
2022/01/31 03:51:19;;;;;;;11.70;5.40;;;;;;;;;;5051794;28;20037;-76
2022/01/31 03:53:45;;;;;;;14.15;5.65;;;;;;;;;;5052089;28;20366;-77
2022/01/31 03:56:11;;;;;;;9.43;5.10;;;;;;;;;;5052009;28;20072;-77
2022/01/31 03:58:37;;;;;;;16.08;5.75;;;;;;;;;;5052049;28;20106;-77
2022/01/31 04:01:03;;;;;;;8.93;5.10;;;;;;;;;;5052268;28;20044;-76
2022/01/31 04:03:29;;;;;;;15.57;5.50;;;;;;;;;;5051589;28;20037;-76
2022/01/31 04:05:55;;;;;;;10.23;5.45;;;;;;;;;;5051610;28;20090;-77
2022/01/31 04:08:21;;;;;;;9.85;4.75;;;;;;;;;;5051797;28;20123;-77
2022/01/31 04:10:48;;;;;;;8.93;5.20;;;;;;;;;;5051583;28;20053;-77
2022/01/31 04:13:16;;;;;;;12.68;4.63;;;;;;;;;;5051502;28;20052;-77
2022/01/31 04:15:43;;;;;;;8.18;4.55;;;;;;;;;;5051525;28;20040;-78
2022/01/31 04:18:09;;;;;;;13.75;4.75;;;;;;;;;;5051390;28;20037;-77
2022/01/31 04:20:36;;;;;;;11.35;3.85;;;;;;;;;;5051846;28;20508;-78
2022/01/31 04:23:23;;;;;;;16.92;4.68;;;;;;;;;;5051419;28;20110;-79
2022/01/31 04:28:25;;;;;;;11.57;2.65;;;;;;;;;;5051647;28;20047;-80
2022/01/31 04:30:59;;;;;;;15.93;3.55;;;;;;;;;;5051629;28;20397;-79
2022/01/31 04:33:26;;;;;;;11.43;2.83;;;;;;;;;;5051717;28;20467;-75
2022/01/31 04:35:53;;;;;;;13.48;2.67;;;;;;;;;;5052026;28;20083;-83
2022/01/31 04:38:19;;;;;;;13.25;2.33;;;;;;;;;;5051654;28;20044;-77
2022/01/31 04:40:45;;;;;;;8.07;1.80;;;;;;;;;;5051751;28;20128;-78
2022/01/31 04:43:12;;;;;;;12.52;2.15;;;;;;;;;;5051593;28;20045;-80
2022/01/31 04:45:38;;;;;;;13.25;3.10;;;;;;;;;;5052316;28;20091;-78
2022/01/31 04:48:04;;;;;;;7.20;1.60;;;;;;;;;;5052365;28;20080;-81
2022/01/31 04:50:30;;;;;;;9.00;1.60;;;;;;;;;;5051472;28;20045;-81
2022/01/31 04:52:56;;;;;;;11.45;2.17;;;;;;;;;;5051455;28;20531;-79
2022/01/31 04:55:22;;;;;;;5.03;1.38;;;;;;;;;;5051470;28;20554;-78
2022/01/31 04:57:48;;;;;;;4.35;1.17;;;;;;;;;;5052012;28;20059;-78
2022/01/31 05:00:14;;;;;;;7.85;1.35;;;;;;;;;;5051224;28;20044;-78
2022/01/31 05:02:40;;;;;;;8.40;1.55;;;;;;;;;;5050768;28;20059;-81
2022/01/31 05:05:06;;;;;;;10.55;1.80;;;;;;;;;;5051018;28;20036;-78
2022/01/31 05:07:33;;;;;;;7.65;1.35;;;;;;;;;;5050829;28;20037;-79
2022/01/31 05:09:59;;;;;;;9.88;1.77;;;;;;;;;;5050368;28;20060;-78
2022/01/31 05:12:27;;;;;;;9.55;1.58;;;;;;;;;;5050878;28;20518;-79
2022/01/31 05:14:53;;;;;;;10.07;1.45;;;;;;;;;;5050389;28;20041;-79
2022/01/31 05:17:19;;;;;;;9.80;2.38;;;;;;;;;;5050787;28;20404;-77
2022/01/31 05:19:45;;;;;;;10.57;1.52;;;;;;;;;;5050352;28;20056;-78
2022/01/31 05:22:10;;;;;;;8.35;1.75;;;;;;;;;;5050205;28;20083;-77
2022/01/31 05:24:36;;;;;;;9.38;2.03;;;;;;;;;;5050410;28;20044;-78
2022/01/31 05:27:02;;;;;;;11.63;1.67;;;;;;;;;;5050259;28;20409;-77
2022/01/31 05:29:28;;;;;;;12.70;1.95;;;;;;;;;;5050881;28;20059;-76
2022/01/31 05:31:54;;;;;;;9.23;2.40;;;;;;;;;;5050139;28;20127;-79
2022/01/31 05:34:23;;;;;;;10.00;1.48;;;;;;;;;;5050820;28;20036;-77
2022/01/31 05:36:54;;;;;;;3.45;1.05;;;;;;;;;;5051895;28;20083;-82
2022/01/31 05:39:21;;;;;;;1.10;0.40;;;;;;;;;;5051485;28;20132;-81
2022/01/31 05:41:47;;;;;;;4.78;0.55;;;;;;;;;;5051641;28;20056;-82
2022/01/31 05:44:13;;;;;;;1.63;0.63;;;;;;;;;;5050398;28;20041;-76
2022/01/31 05:46:39;;;;;;;2.28;0.43;;;;;;;;;;5051216;28;20175;-78
2022/01/31 05:49:05;;;;;;;6.35;1.65;;;;;;;;;;5050577;28;20477;-78
2022/01/31 05:51:31;;;;;;;3.38;0.50;;;;;;;;;;5050575;28;20041;-77
2022/01/31 05:53:57;;;;;;;1.90;0.65;;;;;;;;;;5050233;28;20037;-80
2022/01/31 05:56:23;;;;;;;4.55;0.63;;;;;;;;;;5052871;28;20041;-78
2022/01/31 05:58:50;;;;;;;6.60;1.17;;;;;;;;;;5054521;28;20053;-78
2022/01/31 06:01:16;;;;;;;5.78;0.90;;;;;;;;;;5054411;28;20493;-78
2022/01/31 06:03:42;;;;;;;3.78;1.10;;;;;;;;;;5054181;28;20128;-79
2022/01/31 06:06:08;;;;;;;12.15;1.52;;;;;;;;;;5054249;28;20093;-78
2022/01/31 06:08:34;;;;;;;4.97;0.70;;;;;;;;;;5053912;28;20033;-79
2022/01/31 06:11:00;;;;;;;2.50;0.45;;;;;;;;;;5054106;28;20045;-77
2022/01/31 06:13:31;;;;;;;5.60;0.75;;;;;;;;;;5054084;28;20409;-78
2022/01/31 06:15:57;;;;;;;4.70;1.10;;;;;;;;;;5053788;28;20397;-78
2022/01/31 06:18:23;;;;;;;6.32;0.90;;;;;;;;;;5054052;28;20047;-78
2022/01/31 06:20:49;;;;;;;3.17;0.63;;;;;;;;;;5053707;28;20119;-78
2022/01/31 06:23:15;;;;;;;4.07;0.80;;;;;;;;;;5053676;28;20048;-78
2022/01/31 06:25:41;;;;;;;7.57;1.00;;;;;;;;;;5053716;28;20052;-78
2022/01/31 06:28:07;;;;;;;1.70;0.60;;;;;;;;;;5053984;28;20056;-77
2022/01/31 06:30:35;;;;;;;6.45;0.73;;;;;;;;;;5054250;28;20041;-77
2022/01/31 06:33:01;;;;;;;4.05;1.00;;;;;;;;;;5053542;28;20083;-78
2022/01/31 06:35:27;;;;;;;4.05;0.52;;;;;;;;;;5053894;28;20100;-77
2022/01/31 06:37:53;;;;;;;5.60;0.85;;;;;;;;;;5053611;28;20032;-79
2022/01/31 06:40:19;;;;;;;5.97;0.70;;;;;;;;;;5053593;28;20087;-77
2022/01/31 06:42:45;;;;;;;7.07;1.27;;;;;;;;;;5053818;28;20071;-78
2022/01/31 06:45:11;;;;;;;5.75;1.45;;;;;;;;;;5053732;28;20490;-77
2022/01/31 06:47:38;;;;;;;8.85;1.05;;;;;;;;;;5054392;28;20041;-78
2022/01/31 06:50:06;;;;;;;3.22;0.52;;;;;;;;;;5054202;28;20155;-80
2022/01/31 06:52:34;;;;;;;7.68;1.15;;;;;;;;;;5053517;28;20043;-78
2022/01/31 06:55:03;;;;;;;5.72;0.90;;;;;;;;;;5053479;28;20045;-77
2022/01/31 06:57:33;;;;;;;10.32;1.15;;;;;;;;;;5053238;28;20048;-78
2022/01/31 07:00:04;;;;;;;6.43;1.30;;;;;;;;;;5053317;28;20102;-78
2022/01/31 07:02:30;;;;;;;;;;;;;;;;;;5053923;28;20090;-76
2022/01/31 07:04:56;;;;;;;0.70;0.57;;;;;;;;;;5053101;28;19920;-79
2022/01/31 07:07:22;;;;;;;2.22;0.77;;;;;;;;;;5051956;28;20497;-78
2022/01/31 07:09:48;;;;;;;8.40;0.90;;;;;;;;;;5053195;28;20516;-77
2022/01/31 07:12:16;;;;;;;5.43;0.80;;;;;;;;;;5052853;28;20489;-77
2022/01/31 07:14:42;;;;;;;4.95;0.80;;;;;;;;;;5052851;28;20513;-79
2022/01/31 07:17:08;;;;;;;2.45;0.77;;;;;;;;;;5053482;28;20033;-78
2022/01/31 07:19:37;;;;;;;4.63;0.90;;;;;;;;;;5053002;28;20393;-78
2022/01/31 07:22:07;;;;;;;4.28;0.88;;;;;;;;;;5052853;28;20396;-77
2022/01/31 07:27:02;;;;;;;4.65;0.73;;;;;;;;;;5069282;28;20037;-77
2022/01/31 07:29:31;;;;;;;5.03;1.20;;;;;;;;;;5068974;28;20045;-79
2022/01/31 07:31:58;;;;;;;5.70;0.77;;;;;;;;;;5035654;28;20041;-78
2022/01/31 07:34:24;;;;;;;7.03;0.95;;;;;;;;;;5032718;28;20041;-76
2022/01/31 07:36:51;;;;;;;3.33;0.57;;;;;;;;;;5065835;28;20814;-76
2022/01/31 07:39:17;;;;;;;2.40;0.70;;;;;;;;;;5065837;28;20033;-77
2022/01/31 07:41:43;;;;;;;3.55;0.63;;;;;;;;;;5032684;28;20044;-76
2022/01/31 07:44:10;;;;;;;2.20;0.68;;;;;;;;;;5032202;28;20048;-78
2022/01/31 07:46:37;;;;;;;4.57;0.80;;;;;;;;;;5032432;28;20517;-77
2022/01/31 07:49:04;;;;;;;2.13;0.60;;;;;;;;;;5033200;28;20159;-77
2022/01/31 07:51:30;;;;;;;3.10;0.73;;;;;;;;;;5031600;28;20461;-77
2022/01/31 07:53:56;;;;;;;3.72;0.70;;;;;;;;;;5065212;28;20044;-75
2022/01/31 07:56:22;;;;;;;5.32;0.70;;;;;;;;;;5066048;28;20348;-78
2022/01/31 07:58:49;;;;;;;6.35;0.82;;;;;;;;;;5065379;28;20049;-77
2022/01/31 08:01:15;;;;;;;8.00;1.05;;;;;;;;;;5066628;28;20620;-78
2022/01/31 08:03:41;;;;;;;4.30;1.25;;;;;;;;;;5033168;28;20037;-77
2022/01/31 08:06:07;;;;;;;5.07;1.02;;;;;;;;;;5033562;28;20041;-77
2022/01/31 08:08:34;;;;;;;5.60;1.40;;;;;;;;;;5032846;28;20048;-76
2022/01/31 08:11:02;;;;;;;7.07;1.15;;;;;;;;;;5064946;28;20131;-76
2022/01/31 08:13:28;;;;;;;4.30;0.98;;;;;;;;;;5064833;28;20496;-76
2022/01/31 08:16:02;;;;;;;4.85;1.20;;;;;;;;;;5063921;28;20047;-77
2022/01/31 08:18:28;;;;;;;2.97;1.45;;;;;;;;;;5030986;28;20080;-76
2022/01/31 08:20:54;;;;;;;4.78;1.50;;;;;;;;;;5064686;28;20043;-77
2022/01/31 08:23:20;;;;;;;7.03;1.15;;;;;;;;;;5031576;28;20367;-78
2022/01/31 08:25:49;;;;;;;5.22;1.02;;;;;;;;;;5063877;28;20048;-78
2022/01/31 08:28:15;;;;;;;0.80;0.40;;;;;;;;;;5031194;28;20088;-77
2022/01/31 08:30:50;;;;;;;4.32;1.67;;;;;;;;;;5031007;28;20041;-76
2022/01/31 08:33:35;;;;;;;7.97;1.17;;;;;;;;;;5030943;28;20044;-76
2022/01/31 08:36:01;;;;;;;3.85;0.70;;;;;;;;;;5064426;28;20045;-77
2022/01/31 08:38:27;;;;;;;3.60;0.70;;;;;;;;;;5064254;28;20504;-78
2022/01/31 08:40:53;;;;;;;3.70;0.85;;;;;;;;;;5031066;28;20052;-77
2022/01/31 08:43:20;;;;;;;4.22;0.77;;;;;;;;;;5030946;28;20048;-79
2022/01/31 08:45:47;;;;;;;4.75;1.80;;;;;;;;;;5064190;28;20102;-76
2022/01/31 08:48:13;;;;;;;2.75;0.43;;;;;;;;;;5030965;28;20136;-76
2022/01/31 08:50:39;;;;;;;5.47;1.15;;;;;;;;;;5031112;28;20135;-78
2022/01/31 08:53:05;;;;;;;2.88;0.80;;;;;;;;;;5064606;28;20456;-76
2022/01/31 08:55:31;;;;;;;4.05;0.40;;;;;;;;;;5064718;28;20382;-76
2022/01/31 08:57:58;;;;;;;1.90;0.45;;;;;;;;;;5063872;28;20094;-77
2022/01/31 09:00:34;;;;;;;7.10;0.93;;;;;;;;;;5065421;28;20128;-77
2022/01/31 09:03:20;;;;;;;3.28;0.95;;;;;;;;;;5031409;28;20041;-76
2022/01/31 09:05:46;;;;;;;3.25;0.68;;;;;;;;;;5063941;28;20087;-75
2022/01/31 09:08:12;;;;;;;4.97;0.70;;;;;;;;;;5031164;28;20075;-75
2022/01/31 09:10:39;;;;;;;4.85;0.60;;;;;;;;;;5064364;28;20053;-76
2022/01/31 09:13:06;;;;;;;9.90;0.88;;;;;;;;;;5032440;28;20048;-77
2022/01/31 09:15:32;;;;;;;6.22;0.75;;;;;;;;;;5032487;28;20155;-77
2022/01/31 09:17:58;;;;;;;3.58;0.65;;;;;;;;;;5065105;28;20036;-76
2022/01/31 09:20:24;;;;;;;1.77;0.80;;;;;;;;;;5064610;28;20556;-74
2022/01/31 09:22:50;;;;;;;6.88;0.85;;;;;;;;;;5064573;28;20132;-76
2022/01/31 09:25:16;;;;;;;4.35;1.05;;;;;;;;;;5064403;28;20569;-76
2022/01/31 09:27:42;;;;;;;4.60;0.90;;;;;;;;;;5030607;28;20051;-75
2022/01/31 09:30:09;;;;;;;4.97;1.00;;;;;;;;;;5063223;28;20107;-75
2022/01/31 09:32:36;;;;;;;2.38;0.73;;;;;;;;;;5028309;28;20443;-76
2022/01/31 09:35:02;;;;;;;7.78;1.25;;;;;;;;;;5051594;28;20041;-77
2022/01/31 09:37:28;;;;;;;5.45;0.90;;;;;;;;;;5051732;28;20047;-76
2022/01/31 09:40:02;;;;;;;3.13;0.63;;;;;;;;;;5051085;28;20045;-75
2022/01/31 09:42:50;;;;;;;4.07;0.63;;;;;;;;;;5051360;28;20409;-76
2022/01/31 09:45:24;;;;;;;3.80;1.55;;;;;;;;;;5051571;28;20045;-75
2022/01/31 09:50:28;;;;;;;7.35;0.90;;;;;;;;;;5052258;28;20070;-75
2022/01/31 09:52:55;;;;;;;2.67;0.82;;;;;;;;;;5051057;28;20037;-77
2022/01/31 09:55:21;;;;;;;2.92;0.82;;;;;;;;;;5067819;28;20036;-78
2022/01/31 09:57:48;;;;;;;4.38;0.77;;;;;;;;;;5035020;28;20055;-77
2022/01/31 10:00:14;;;;;;;3.40;0.50;;;;;;;;;;5034578;28;20128;-77
2022/01/31 10:02:41;;;;;;;3.58;0.55;;;;;;;;;;5067733;28;20041;-77
2022/01/31 10:05:07;;;;;;;5.45;0.80;;;;;;;;;;5031111;28;20053;-76
2022/01/31 10:07:47;;;;;;;3.67;0.60;;;;;;;;;;5032698;28;20053;-76
2022/01/31 10:10:22;;;;;;;3.60;0.55;;;;;;;;;;5031096;28;20506;-75
2022/01/31 10:18:08;;;;;;;1.35;0.50;;;;;;;;;;5032230;28;20582;-76
2022/01/31 10:20:35;;;;;;;1.05;0.50;;;;;;;;;;5031947;28;20124;-77
2022/01/31 10:23:08;;;;;;;6.13;0.55;;;;;;;;;;5032097;28;20049;-74
2022/01/31 10:25:34;;;;;;;2.33;0.85;;;;;;;;;;5032327;28;20196;-78
2022/01/31 10:28:00;;;;;;;4.35;0.73;;;;;;;;;;5032371;28;20068;-75
2022/01/31 10:30:28;;;;;;;5.00;1.42;;;;;;;;;;5015422;28;20608;-81
2022/01/31 10:32:55;;;;;;;4.47;0.90;;;;;;;;;;5014133;28;20048;-77
2022/01/31 10:35:23;;;;;;;3.58;0.60;;;;;;;;;;5014690;28;20045;-76
2022/01/31 10:37:50;;;;;;;6.97;0.93;;;;;;;;;;5031281;28;20694;-77
2022/01/31 10:43:28;;;;;;;4.03;0.98;;;;;;;;;;5034107;28;20080;-76
2022/01/31 10:46:08;;;;;;;4.70;1.08;;;;;;;;;;5054916;28;20070;-75
2022/01/31 10:53:57;;;;;;;5.65;0.82;;;;;;;;;;5054439;28;20095;-76
2022/01/31 10:56:24;;;;;;;8.82;1.52;;;;;;;;;;5055058;28;20558;-79
2022/01/31 10:58:54;;;;;;;8.60;0.98;;;;;;;;;;5054378;28;20373;-76
2022/01/31 11:01:20;;;;;;;5.63;1.10;;;;;;;;;;5053897;28;20033;-76
2022/01/31 11:03:47;;;;;;;4.68;0.82;;;;;;;;;;5055261;28;20044;-77
2022/01/31 11:06:13;;;;;;;6.13;1.70;;;;;;;;;;5054267;28;20043;-77
2022/01/31 11:08:40;;;;;;;3.60;0.73;;;;;;;;;;5054890;28;20049;-78
2022/01/31 11:11:06;;;;;;;5.38;1.17;;;;;;;;;;5054173;28;20497;-76
2022/01/31 11:13:33;;;;;;;7.88;0.77;;;;;;;;;;5053357;28;20056;-83
2022/01/31 11:16:04;;;;;;;5.77;0.90;;;;;;;;;;5037782;28;20064;-78
2022/01/31 11:18:31;;;;;;;3.03;0.73;;;;;;;;;;5069492;28;20044;-75
2022/01/31 11:21:06;;;;;;;5.97;0.70;;;;;;;;;;5036696;28;20123;-74
2022/01/31 11:23:37;;;;;;;6.03;1.10;;;;;;;;;;5037282;28;20037;-80
2022/01/31 11:26:03;;;;;;;;;;;;;;;;;;5037556;28;20091;-77
2022/01/31 11:28:30;;;;;;;7.05;1.00;;;;;;;;;;5053436;28;19979;-75
2022/01/31 11:30:57;;;;;;;4.47;1.27;;;;;;;;;;5036715;28;20052;-78
2022/01/31 11:33:23;;;;;;;6.38;0.98;;;;;;;;;;5071404;28;20132;-82
2022/01/31 11:35:54;;;;;;;3.80;0.55;;;;;;;;;;5036836;28;20045;-79
2022/01/31 11:38:20;;;;;;;9.55;1.27;;;;;;;;;;5070026;28;20123;-80
2022/01/31 11:40:47;;;;;;;4.57;1.00;;;;;;;;;;5037149;28;20037;-82
2022/01/31 11:43:13;;;;;;;8.35;0.98;;;;;;;;;;5036243;28;20072;-78
2022/01/31 11:45:41;;;;;;;8.63;1.10;;;;;;;;;;5036548;28;20048;-78
2022/01/31 11:48:27;;;;;;;4.15;0.98;;;;;;;;;;5037005;28;20076;-74
2022/01/31 11:50:55;;;;;;;6.10;1.52;;;;;;;;;;5052665;28;20057;-78
2022/01/31 11:53:35;;;;;;;5.35;1.00;;;;;;;;;;5036112;28;20033;-79
2022/01/31 11:56:07;;;;;;;10.18;2.28;;;;;;;;;;5069877;28;20048;-81
2022/01/31 11:58:43;;;;;;;6.13;1.35;;;;;;;;;;5069510;28;20491;-73
2022/01/31 12:01:09;;;;;;;7.10;0.90;;;;;;;;;;5036227;28;20037;-77
2022/01/31 12:03:36;;;;;;;8.48;1.92;;;;;;;;;;5069743;28;20055;-75
2022/01/31 12:06:09;;;;;;;5.25;1.15;;;;;;;;;;5033228;28;20120;-82
2022/01/31 12:08:38;;;;;;;3.33;1.20;;;;;;;;;;5033054;28;20053;-76
2022/01/31 12:11:10;;;;;;;7.25;1.92;;;;;;;;;;5017004;28;20588;-73
2022/01/31 12:13:40;;;;;;;3.55;1.05;;;;;;;;;;5016718;28;20048;-79
2022/01/31 12:24:07;;;;;;;9.27;1.75;;;;;;;;;;5048487;28;20037;-78
2022/01/31 12:26:33;;;;;;;8.35;1.52;;;;;;;;;;5030732;28;20048;-80
2022/01/31 12:29:01;;;;;;;10.40;2.00;;;;;;;;;;5033326;28;20037;-80
2022/01/31 12:31:30;;;;;;;14.27;2.03;;;;;;;;;;5033845;28;20049;-81
2022/01/31 12:33:56;;;;;;;10.93;2.08;;;;;;;;;;5033808;28;20464;-79
2022/01/31 12:36:42;;;;;;;8.02;2.05;;;;;;;;;;5033105;28;20091;-79
2022/01/31 12:39:27;;;;;;;6.75;1.88;;;;;;;;;;5032591;28;20401;-79
2022/01/31 12:42:00;;;;;;;10.27;2.15;;;;;;;;;;5032652;28;20057;-75
2022/01/31 12:44:42;;;;;;;9.18;1.30;;;;;;;;;;5032879;28;20128;-78
2022/01/31 12:47:11;;;;;;;8.13;1.88;;;;;;;;;;5016038;28;20144;-76
2022/01/31 12:49:37;;;;;;;6.72;1.48;;;;;;;;;;5032321;28;20038;-80
2022/01/31 12:52:05;;;;;;;7.70;1.88;;;;;;;;;;5032485;28;20091;-76
2022/01/31 12:54:31;;;;;;;9.27;1.30;;;;;;;;;;5016298;28;20128;-77
2022/01/31 12:57:08;;;;;;;7.22;1.20;;;;;;;;;;5031648;28;20098;-74
2022/01/31 12:59:34;;;;;;;10.95;1.55;;;;;;;;;;5032316;28;20041;-80
2022/01/31 13:02:04;;;;;;;10.82;1.80;;;;;;;;;;5016028;28;20100;-76
2022/01/31 13:04:30;;;;;;;7.83;1.70;;;;;;;;;;5031821;28;20042;-78
2022/01/31 13:07:00;;;;;;;7.38;1.60;;;;;;;;;;5015923;28;20049;-77
2022/01/31 13:09:26;;;;;;;11.60;1.50;;;;;;;;;;5031729;28;20049;-75
2022/01/31 13:11:56;;;;;;;6.82;1.88;;;;;;;;;;5031945;28;20425;-79
2022/01/31 13:14:24;;;;;;;9.48;1.42;;;;;;;;;;5015520;28;20064;-79
2022/01/31 13:17:00;;;;;;;12.55;1.67;;;;;;;;;;5015348;28;20087;-77
2022/01/31 13:19:27;;;;;;;7.13;1.30;;;;;;;;;;5015476;28;20042;-80
2022/01/31 13:21:54;;;;;;;7.97;1.30;;;;;;;;;;5015589;28;20486;-78
2022/01/31 13:24:22;;;;;;;12.55;2.20;;;;;;;;;;5014963;28;20124;-78
2022/01/31 13:26:53;;;;;;;9.95;1.58;;;;;;;;;;5032221;28;20055;-78
2022/01/31 13:29:38;;;;;;;12.80;2.08;;;;;;;;;;5031792;28;20049;-77
2022/01/31 13:32:13;;;;;;;10.45;1.52;;;;;;;;;;5014984;28;20111;-80
2022/01/31 13:34:43;;;;;;;10.82;1.67;;;;;;;;;;5015331;28;20064;-78
2022/01/31 13:37:28;;;;;;;8.25;1.48;;;;;;;;;;5015240;28;20045;-79
2022/01/31 13:40:01;;;;;;;5.65;1.45;;;;;;;;;;5032575;28;20034;-79
2022/01/31 13:42:32;;;;;;;4.85;1.50;;;;;;;;;;5031680;28;20109;-79
2022/01/31 13:44:59;;;;;;;5.07;1.13;;;;;;;;;;5015919;28;20134;-82
2022/01/31 13:47:42;;;;;;;9.77;1.38;;;;;;;;;;5016252;28;20429;-75
2022/01/31 13:50:33;;;;;;;4.93;1.25;;;;;;;;;;5015530;28;20049;-81
2022/01/31 13:53:01;;;;;;;11.33;2.13;;;;;;;;;;5015493;28;20049;-79
2022/01/31 13:55:27;;;;;;;8.25;1.63;;;;;;;;;;5032567;28;20535;-78
2022/01/31 13:57:54;;;;;;;11.40;1.83;;;;;;;;;;5015820;28;20500;-80
2022/01/31 14:00:20;;;;;;;10.23;1.83;;;;;;;;;;5034744;28;20048;-81
2022/01/31 14:02:59;;;;;;;8.75;1.45;;;;;;;;;;5032375;28;20041;-81
2022/01/31 14:05:25;;;;;;;13.38;1.55;;;;;;;;;;5048295;28;20041;-79
2022/01/31 14:08:01;;;;;;;8.27;1.27;;;;;;;;;;5031601;28;20045;-79
2022/01/31 14:10:31;;;;;;;13.20;2.17;;;;;;;;;;5031853;28;20148;-84
2022/01/31 14:13:01;;;;;;;6.97;1.60;;;;;;;;;;5031616;28;20139;-80
2022/01/31 14:15:27;;;;;;;12.35;1.77;;;;;;;;;;5031750;28;20045;-80
2022/01/31 14:17:54;;;;;;;12.23;2.53;;;;;;;;;;5034023;28;20044;-76
2022/01/31 14:20:20;;;;;;;13.73;2.15;;;;;;;;;;5035396;28;20092;-74
2022/01/31 14:23:13;;;;;;;11.43;1.65;;;;;;;;;;5034246;28;20033;-78
2022/01/31 14:25:40;;;;;;;9.40;2.05;;;;;;;;;;5049105;28;20063;-80
2022/01/31 14:28:06;;;;;;;10.48;2.22;;;;;;;;;;5067776;28;20045;-77
2022/01/31 14:30:33;;;;;;;12.50;2.80;;;;;;;;;;5026282;28;20077;-77
2022/01/31 14:33:08;;;;;;;4.68;1.25;;;;;;;;;;5032918;28;20552;-78
2022/01/31 14:35:40;;;;;;;4.40;1.25;;;;;;;;;;5049077;28;20040;-76
2022/01/31 14:38:18;;;;;;;3.88;1.00;;;;;;;;;;5052084;28;20053;-81
2022/01/31 14:49:03;;;;;;;3.20;0.75;;;;;;;;;;5051073;28;20056;-78
2022/01/31 14:51:30;;;;;;;4.68;0.95;;;;;;;;;;5050522;28;20115;-78
2022/01/31 14:54:14;;;;;;;4.25;1.00;;;;;;;;;;5050303;28;20394;-82
2022/01/31 14:56:50;;;;;;;1.55;0.75;;;;;;;;;;5049109;28;20684;-79
2022/01/31 14:59:16;;;;;;;3.45;1.13;;;;;;;;;;5025982;28;20037;-78
2022/01/31 15:01:42;;;;;;;4.68;1.60;;;;;;;;;;5013735;28;20128;-77
2022/01/31 15:04:17;;;;;;;6.15;2.05;;;;;;;;;;5030985;28;20517;-77
2022/01/31 15:06:43;;;;;;;6.82;2.13;;;;;;;;;;5014061;28;20057;-75
2022/01/31 15:09:11;;;;;;;7.05;3.05;;;;;;;;;;5013774;28;20053;-79
2022/01/31 15:11:37;;;;;;;7.28;2.80;;;;;;;;;;5030531;28;20049;-76
2022/01/31 15:14:04;;;;;;;9.23;3.30;;;;;;;;;;4997818;28;20486;-80
2022/01/31 15:16:30;;;;;;;8.75;3.60;;;;;;;;;;5030614;28;20037;-75
2022/01/31 15:18:57;;;;;;;11.50;3.88;;;;;;;;;;5020640;28;20033;-78
2022/01/31 15:21:27;;;;;;;9.43;4.25;;;;;;;;;;5049146;28;20045;-75